Hudson Mills, Michigan
Current Conditions -  °F | °C
As of 1:09 PM on Friday 28 Nov 2014 (Local Time) from KARB Reporting Station
Overcast Overcast  
Wind Chill: -9°   Ceiling: 2500
Heat Index: -3°   Visibility: 10mi
Dew Point: -10°   Wind: 12mph
Humidity: 60%   Direction: 190°S
Pressure: 30.24"   Gusts: NA
Location:  42.3528°N, 83.8974°W
Report Text: KARB 281809Z 19010KT 10SM BKN025 OVC075 M03/M10 A3024 RMK AO2 T10331100
Loading
Personal Weather Stations






























Interactive Weather Map New forecast layout! Learn more

10-Day Weather Forecast

Advertisements
Track Severe Weather on mobile